createdAt,value
2022-11-14T00:01:13.150Z,7.88
2022-11-14T00:03:40.551Z,7.40
2022-11-14T00:06:08.582Z,7.53
2022-11-14T00:08:36.318Z,7.72
2022-11-14T00:11:04.022Z,7.53
2022-11-14T00:13:31.269Z,6.57
2022-11-14T00:15:58.687Z,7.13
2022-11-14T00:18:25.888Z,7.22
2022-11-14T00:20:53.926Z,7.25
2022-11-14T00:23:22.162Z,7.20
2022-11-14T00:25:49.720Z,7.88
2022-11-14T00:28:17.134Z,7.22
2022-11-14T00:30:48.799Z,7.55
2022-11-14T00:33:20.353Z,7.38
2022-11-14T00:35:55.561Z,7.45
2022-11-14T00:38:23.910Z,7.18
2022-11-14T00:40:51.436Z,7.05
2022-11-14T00:43:18.784Z,7.18
2022-11-14T00:45:46.895Z,7.80
2022-11-14T00:48:15.488Z,7.57
2022-11-14T00:50:43.912Z,7.75
2022-11-14T00:53:11.630Z,7.35
2022-11-14T00:55:38.917Z,7.32
2022-11-14T00:58:06.375Z,7.65
2022-11-14T01:00:34.084Z,7.00
2022-11-14T01:03:01.752Z,7.38
2022-11-14T01:05:29.335Z,7.45
2022-11-14T01:07:56.547Z,7.35
2022-11-14T01:10:24.159Z,6.75
2022-11-14T01:12:51.345Z,7.00
2022-11-14T01:15:18.632Z,7.68
2022-11-14T01:17:45.911Z,7.15
2022-11-14T01:20:13.264Z,7.65
2022-11-14T01:22:40.520Z,7.07
2022-11-14T01:25:08.196Z,7.40
2022-11-14T01:27:35.638Z,7.45
2022-11-14T01:30:03.278Z,7.15
2022-11-14T01:32:30.541Z,7.40
2022-11-14T01:34:57.780Z,7.18
2022-11-14T01:37:25.014Z,6.78
2022-11-14T01:39:52.197Z,7.15
2022-11-14T01:42:21.950Z,7.10
2022-11-14T01:44:52.979Z,7.10
2022-11-14T01:47:32.298Z,7.10
2022-11-14T01:50:02.087Z,7.22
2022-11-14T01:52:36.523Z,6.60
2022-11-14T01:55:08.749Z,6.95
2022-11-14T01:57:43.428Z,6.78
2022-11-14T02:02:39.395Z,6.90
2022-11-14T02:05:17.832Z,7.63
2022-11-14T02:07:45.246Z,7.00
2022-11-14T02:10:19.717Z,7.57
2022-11-14T02:12:47.256Z,7.05
2022-11-14T02:15:15.604Z,6.88
2022-11-14T02:17:44.058Z,6.53
2022-11-14T02:20:11.685Z,7.15
2022-11-14T02:22:40.894Z,6.90
2022-11-14T02:25:10.008Z,6.82
2022-11-14T02:27:39.485Z,6.75
2022-11-14T02:30:09.887Z,7.07
2022-11-14T02:33:08.754Z,6.72
2022-11-14T02:35:24.537Z,7.18
2022-11-14T02:37:51.785Z,7.03
2022-11-14T02:40:19.228Z,6.63
2022-11-14T02:42:46.516Z,7.00
2022-11-14T02:45:14.250Z,6.65
2022-11-14T02:47:41.474Z,6.68
2022-11-14T02:50:09.157Z,6.57
2022-11-14T02:52:36.365Z,6.78
2022-11-14T02:55:04.536Z,6.78
2022-11-14T02:57:31.735Z,6.25
2022-11-14T02:59:58.991Z,7.03
2022-11-14T03:02:26.212Z,6.50
2022-11-14T03:04:53.704Z,6.75
2022-11-14T03:07:21.119Z,6.60
2022-11-14T03:09:48.388Z,7.07
2022-11-14T03:12:19.974Z,6.32
2022-11-14T03:14:47.227Z,6.32
2022-11-14T03:17:14.551Z,6.75
2022-11-14T03:19:41.756Z,6.47
2022-11-14T03:22:09.065Z,6.28
2022-11-14T03:24:36.370Z,6.32
2022-11-14T03:27:03.684Z,5.97
2022-11-14T03:29:30.875Z,6.90
2022-11-14T03:31:58.125Z,6.70
2022-11-14T03:34:25.341Z,6.50
2022-11-14T03:36:52.584Z,6.38
2022-11-14T03:39:19.850Z,6.10
2022-11-14T03:41:47.102Z,5.95
2022-11-14T03:44:14.303Z,6.13
2022-11-14T03:46:41.496Z,6.43
2022-11-14T03:49:08.808Z,6.30
2022-11-14T03:51:36.401Z,6.30
2022-11-14T03:54:03.745Z,6.25
2022-11-14T03:56:30.922Z,6.38
2022-11-14T03:58:58.196Z,6.28
2022-11-14T04:01:25.448Z,5.97
2022-11-14T04:03:52.749Z,6.40
2022-11-14T04:06:20.018Z,6.68
2022-11-14T04:08:47.497Z,6.07
2022-11-14T04:11:14.691Z,5.88
2022-11-14T04:13:41.939Z,6.10
2022-11-14T04:16:09.184Z,5.90
2022-11-14T04:18:36.438Z,6.30
2022-11-14T04:21:03.824Z,6.53
2022-11-14T04:23:31.108Z,6.13
2022-11-14T04:25:58.691Z,6.13
2022-11-14T04:28:25.904Z,6.40
2022-11-14T04:30:53.186Z,6.60
2022-11-14T04:33:20.520Z,6.25
2022-11-14T04:35:48.038Z,6.00
2022-11-14T04:38:15.325Z,6.10
2022-11-14T04:40:51.961Z,5.75
2022-11-14T04:43:20.512Z,6.85
2022-11-14T04:45:48.073Z,6.00
2022-11-14T04:48:15.396Z,5.90
2022-11-14T04:50:42.653Z,5.85
2022-11-14T04:53:09.867Z,6.07
2022-11-14T04:55:37.081Z,6.30
2022-11-14T04:58:04.420Z,6.75
2022-11-14T05:00:31.653Z,6.20
2022-11-14T05:03:01.922Z,6.25
2022-11-14T05:05:29.173Z,5.85
2022-11-14T05:07:56.473Z,6.10
2022-11-14T05:10:23.824Z,6.45
2022-11-14T05:12:54.697Z,5.93
2022-11-14T05:15:22.321Z,5.60
2022-11-14T05:17:49.772Z,6.30
2022-11-14T05:20:17.460Z,6.97
2022-11-14T05:22:44.820Z,6.28
2022-11-14T05:25:12.113Z,6.32
2022-11-14T05:27:39.407Z,6.57
2022-11-14T05:30:07.185Z,6.55
2022-11-14T05:32:34.463Z,6.15
2022-11-14T05:35:01.708Z,6.57
2022-11-14T05:37:28.990Z,6.72
2022-11-14T05:39:56.306Z,6.15
2022-11-14T05:42:23.535Z,6.20
2022-11-14T05:44:50.855Z,6.60
2022-11-14T05:47:18.042Z,6.32
2022-11-14T05:49:45.463Z,7.05
2022-11-14T05:52:12.918Z,7.00
2022-11-14T05:54:40.153Z,6.45
2022-11-14T05:57:07.393Z,7.00
2022-11-14T05:59:34.640Z,6.80
2022-11-14T06:02:01.988Z,6.82
2022-11-14T06:04:29.325Z,6.90
2022-11-14T06:06:56.565Z,7.10
2022-11-14T06:09:23.956Z,6.70
2022-11-14T06:11:51.391Z,6.80
2022-11-14T06:14:18.603Z,6.80
2022-11-14T06:16:45.830Z,6.72
2022-11-14T06:19:13.222Z,7.20
2022-11-14T06:21:40.483Z,6.65
2022-11-14T06:24:07.900Z,6.85
2022-11-14T06:26:35.360Z,7.20
2022-11-14T06:29:02.635Z,6.97
2022-11-14T06:31:29.949Z,7.00
2022-11-14T06:33:57.241Z,7.28
2022-11-14T06:36:24.672Z,7.07
2022-11-14T06:38:51.974Z,6.43
2022-11-14T06:41:21.586Z,6.75
2022-11-14T06:43:51.101Z,7.18
2022-11-14T06:46:20.038Z,7.55
2022-11-14T06:48:48.307Z,6.95
2022-11-14T06:51:16.805Z,6.95
2022-11-14T06:53:44.794Z,7.32
2022-11-14T06:56:14.495Z,7.38
2022-11-14T06:58:47.819Z,6.88
2022-11-14T07:01:17.103Z,7.20
2022-11-14T07:03:45.389Z,6.90
2022-11-14T07:06:14.932Z,6.72
2022-11-14T07:08:42.266Z,6.82
2022-11-14T07:11:12.897Z,7.38
2022-11-14T07:13:40.186Z,7.65
2022-11-14T07:16:07.745Z,8.05
2022-11-14T07:18:34.975Z,7.60
2022-11-14T07:21:05.179Z,7.93
2022-11-14T07:23:36.074Z,6.95
2022-11-14T07:26:08.719Z,8.18
2022-11-14T07:28:45.953Z,7.88
2022-11-14T07:31:17.749Z,7.57
2022-11-14T07:33:46.389Z,7.55
2022-11-14T07:36:15.392Z,8.13
2022-11-14T07:38:43.245Z,7.43
2022-11-14T07:41:13.223Z,7.57
2022-11-14T07:43:41.426Z,8.48
2022-11-14T07:46:12.546Z,8.20
2022-11-14T07:48:40.036Z,8.40
2022-11-14T07:51:15.019Z,8.38
2022-11-14T07:53:42.319Z,7.55
2022-11-14T07:56:10.964Z,8.05
2022-11-14T07:58:39.951Z,7.60
2022-11-14T08:01:09.786Z,7.78
2022-11-14T08:03:42.277Z,8.18
2022-11-14T08:06:14.470Z,7.90
2022-11-14T08:08:41.820Z,8.05
2022-11-14T08:11:09.624Z,8.10
2022-11-14T08:13:36.974Z,7.57
2022-11-14T08:16:13.322Z,8.13
2022-11-14T08:18:42.070Z,8.15
2022-11-14T08:21:09.353Z,7.78
2022-11-14T08:23:36.724Z,8.00
2022-11-14T08:26:04.141Z,7.72
2022-11-14T08:28:31.781Z,7.75
2022-11-14T08:31:03.725Z,8.18
2022-11-14T08:33:31.932Z,8.07
2022-11-14T08:36:03.182Z,8.25
2022-11-14T08:38:32.478Z,7.78
2022-11-14T08:41:01.274Z,8.07
2022-11-14T08:43:28.971Z,8.20
2022-11-14T08:46:01.749Z,7.45
2022-11-14T08:48:30.594Z,7.30
2022-11-14T08:51:01.822Z,7.93
2022-11-14T08:53:29.294Z,7.50
2022-11-14T08:55:56.733Z,8.25
2022-11-14T08:58:23.943Z,8.35
2022-11-14T09:00:52.022Z,8.60
2022-11-14T09:03:19.406Z,8.65
2022-11-14T09:05:52.816Z,9.23
2022-11-14T09:08:20.392Z,8.98
2022-11-14T09:10:47.676Z,9.38
2022-11-14T09:13:15.690Z,8.90
2022-11-14T09:15:43.560Z,9.02
2022-11-14T09:18:12.275Z,8.50
2022-11-14T09:20:40.516Z,9.70
2022-11-14T09:23:07.918Z,9.05
2022-11-14T09:25:37.055Z,10.63
2022-11-14T09:28:06.556Z,9.10
2022-11-14T09:30:35.314Z,9.20
2022-11-14T09:33:08.573Z,9.65
2022-11-14T09:35:38.596Z,9.48
2022-11-14T09:38:08.862Z,9.88
2022-11-14T09:40:57.674Z,10.38
2022-11-14T09:43:52.279Z,9.93
2022-11-14T09:46:54.893Z,9.13
2022-11-14T09:49:35.262Z,9.75
2022-11-14T09:52:22.984Z,9.63
2022-11-14T09:54:57.446Z,11.13
2022-11-14T09:57:26.335Z,10.93
2022-11-14T09:59:54.729Z,10.73
2022-11-14T10:02:57.259Z,11.82
2022-11-14T10:05:52.139Z,11.70
2022-11-14T10:08:34.315Z,11.40
2022-11-14T10:11:04.522Z,10.77
2022-11-14T10:14:02.622Z,12.23
2022-11-14T10:16:52.151Z,12.57
2022-11-14T10:19:22.406Z,11.63
2022-11-14T10:22:20.377Z,12.30
2022-11-14T10:24:55.774Z,12.68
2022-11-14T10:27:56.549Z,13.57
2022-11-14T10:30:42.093Z,13.63
2022-11-14T10:33:15.210Z,12.85
2022-11-14T10:35:48.193Z,12.43
2022-11-14T10:38:37.413Z,12.85
2022-11-14T10:41:15.921Z,12.52
2022-11-14T10:43:56.220Z,12.30
2022-11-14T10:46:25.369Z,13.57
2022-11-14T10:48:58.903Z,12.95
2022-11-14T10:51:30.117Z,12.82
2022-11-14T10:54:03.987Z,14.32
2022-11-14T10:56:31.362Z,13.05
2022-11-14T10:58:58.639Z,14.68
2022-11-14T11:01:41.506Z,14.38
2022-11-14T11:04:24.701Z,13.65
2022-11-14T11:06:54.636Z,14.35
2022-11-14T11:09:46.812Z,13.52
2022-11-14T11:12:20.205Z,13.15
2022-11-14T11:14:50.294Z,13.57
2022-11-14T11:17:22.954Z,14.50
2022-11-14T11:19:50.452Z,14.52
2022-11-14T11:22:38.843Z,13.98
2022-11-14T11:25:36.069Z,13.77
2022-11-14T11:28:19.133Z,13.45
2022-11-14T11:31:07.030Z,13.40
2022-11-14T11:33:39.523Z,12.65
2022-11-14T11:36:20.342Z,12.30
2022-11-14T11:38:49.134Z,12.70
2022-11-14T11:42:07.300Z,12.38
2022-11-14T11:44:22.192Z,11.45
2022-11-14T11:47:00.941Z,11.15
2022-11-14T11:49:43.013Z,11.63
2022-11-14T11:52:26.692Z,12.13
2022-11-14T11:55:21.947Z,11.13
2022-11-14T11:58:14.483Z,12.05
2022-11-14T12:00:41.888Z,11.38
2022-11-14T12:03:20.198Z,11.18
2022-11-14T12:05:56.664Z,11.23
2022-11-14T12:08:46.459Z,11.07
2022-11-14T12:11:19.834Z,10.77
2022-11-14T12:14:12.442Z,10.93
2022-11-14T12:16:51.845Z,10.65
2022-11-14T12:19:40.309Z,10.35
2022-11-14T12:22:51.836Z,10.43
2022-11-14T12:25:25.010Z,10.95
2022-11-14T12:28:03.047Z,11.02
2022-11-14T12:30:33.040Z,11.10
2022-11-14T12:33:11.977Z,10.38
2022-11-14T12:35:51.905Z,10.82
2022-11-14T12:38:21.146Z,10.57
2022-11-14T12:41:00.290Z,10.57
2022-11-14T12:43:38.606Z,11.40
2022-11-14T12:46:11.670Z,10.80
2022-11-14T12:48:41.685Z,10.13
2022-11-14T12:51:27.492Z,10.23
2022-11-14T12:53:56.849Z,10.52
2022-11-14T12:56:30.376Z,10.77
2022-11-14T12:59:22.378Z,10.38
2022-11-14T13:01:52.649Z,10.55
2022-11-14T13:04:32.203Z,10.48
2022-11-14T13:07:32.972Z,10.82
2022-11-14T13:10:15.652Z,10.20
2022-11-14T13:13:15.691Z,10.35
2022-11-14T13:16:16.881Z,10.90
2022-11-14T13:19:30.826Z,9.77
2022-11-14T13:22:13.169Z,10.57
2022-11-14T13:25:01.070Z,10.63
2022-11-14T13:28:00.641Z,9.98
2022-11-14T13:33:09.926Z,10.23
2022-11-14T13:35:40.677Z,10.70
2022-11-14T13:38:35.312Z,10.27
2022-11-14T13:41:23.874Z,10.07
2022-11-14T13:44:00.430Z,10.55
2022-11-14T13:46:52.326Z,9.98
2022-11-14T13:49:38.284Z,10.15
2022-11-14T13:52:06.035Z,10.07
2022-11-14T13:54:33.845Z,9.75
2022-11-14T13:57:20.375Z,8.90
2022-11-14T14:00:00.360Z,9.77
2022-11-14T14:02:55.047Z,9.40
2022-11-14T14:05:48.431Z,9.75
2022-11-14T14:08:30.630Z,9.27
2022-11-14T14:11:18.801Z,8.85
2022-11-14T14:14:13.872Z,9.07
2022-11-14T14:16:54.105Z,9.10
2022-11-14T14:19:26.226Z,9.10
2022-11-14T14:22:15.076Z,9.45
2022-11-14T14:25:09.614Z,9.05
2022-11-14T14:28:09.255Z,9.88
2022-11-14T14:30:36.589Z,8.70
2022-11-14T14:33:15.215Z,9.30
2022-11-14T14:35:51.727Z,8.63
2022-11-14T14:38:25.809Z,9.60
2022-11-14T14:40:55.959Z,9.23
2022-11-14T14:43:34.568Z,8.90
2022-11-14T14:46:02.735Z,9.23
2022-11-14T14:48:34.599Z,8.65
2022-11-14T14:51:08.133Z,8.75
2022-11-14T14:53:36.669Z,7.85
2022-11-14T14:56:06.900Z,8.43
2022-11-14T14:58:35.762Z,9.27
2022-11-14T15:01:07.342Z,8.57
2022-11-14T15:03:44.547Z,9.00
2022-11-14T15:06:30.509Z,8.80
2022-11-14T15:09:17.428Z,8.57
2022-11-14T15:11:47.719Z,9.35
2022-11-14T15:14:19.689Z,8.75
2022-11-14T15:16:50.797Z,8.52
2022-11-14T15:19:22.843Z,7.65
2022-11-14T15:22:10.761Z,9.48
2022-11-14T15:24:38.041Z,8.38
2022-11-14T15:27:12.008Z,8.18
2022-11-14T15:29:57.943Z,8.23
2022-11-14T15:32:26.506Z,8.15
2022-11-14T15:35:25.697Z,8.32
2022-11-14T15:38:36.705Z,8.68
2022-11-14T15:41:16.788Z,8.10
2022-11-14T15:43:43.979Z,8.48
2022-11-14T15:46:27.605Z,8.23
2022-11-14T15:48:55.408Z,8.65
2022-11-14T15:51:41.284Z,7.85
2022-11-14T15:54:22.809Z,8.60
2022-11-14T15:56:50.888Z,8.80
2022-11-14T15:59:18.618Z,8.15
2022-11-14T16:01:49.175Z,8.10
2022-11-14T16:04:20.687Z,8.13
2022-11-14T16:06:48.379Z,8.65
2022-11-14T16:09:18.279Z,8.15
2022-11-14T16:11:48.600Z,8.55
2022-11-14T16:14:16.459Z,7.85
2022-11-14T16:16:43.675Z,7.45
2022-11-14T16:19:15.206Z,8.05
2022-11-14T16:21:42.773Z,7.25
2022-11-14T16:24:21.806Z,8.85
2022-11-14T16:26:50.042Z,8.73
2022-11-14T16:29:17.795Z,8.05
2022-11-14T16:31:45.074Z,7.88
2022-11-14T16:34:26.419Z,8.10
2022-11-14T16:37:01.720Z,8.52
2022-11-14T16:39:29.532Z,7.70
2022-11-14T16:42:03.579Z,7.88
2022-11-14T16:44:37.157Z,7.88
2022-11-14T16:47:07.632Z,7.00
2022-11-14T16:49:34.856Z,8.00
2022-11-14T16:52:07.054Z,8.48
2022-11-14T16:54:34.379Z,7.68
2022-11-14T16:57:01.579Z,7.90
2022-11-14T16:59:29.774Z,7.90
2022-11-14T17:01:57.141Z,8.80
2022-11-14T17:04:24.454Z,8.70
2022-11-14T17:06:51.727Z,8.18
2022-11-14T17:09:19.065Z,8.00
2022-11-14T17:11:46.708Z,7.88
2022-11-14T17:14:26.500Z,7.88
2022-11-14T17:16:53.813Z,7.63
2022-11-14T17:19:23.002Z,7.00
2022-11-14T17:21:51.420Z,7.85
2022-11-14T17:24:18.687Z,7.60
2022-11-14T17:26:45.946Z,7.70
2022-11-14T17:29:13.305Z,7.22
2022-11-14T17:31:45.779Z,8.05
2022-11-14T17:34:14.167Z,7.97
2022-11-14T17:36:41.562Z,7.88
2022-11-14T17:39:08.840Z,8.15
2022-11-14T17:41:36.128Z,7.82
2022-11-14T17:44:03.698Z,7.68
2022-11-14T17:46:31.448Z,8.70
2022-11-14T17:48:59.290Z,9.20
2022-11-14T17:51:26.821Z,8.50
2022-11-14T17:53:54.127Z,8.68
2022-11-14T17:56:23.601Z,8.63
2022-11-14T17:58:53.228Z,9.13
2022-11-14T18:01:23.473Z,8.40
2022-11-14T18:03:50.799Z,9.40
2022-11-14T18:06:20.692Z,9.13
2022-11-14T18:08:48.373Z,9.15
2022-11-14T18:11:17.388Z,8.95
2022-11-14T18:13:44.687Z,8.55
2022-11-14T18:16:15.087Z,9.15
2022-11-14T18:18:42.351Z,9.05
2022-11-14T18:21:19.398Z,8.95
2022-11-14T18:23:58.323Z,8.95
2022-11-14T18:26:28.339Z,9.13
2022-11-14T18:29:01.010Z,9.38
2022-11-14T18:31:28.812Z,9.27
2022-11-14T18:33:56.966Z,10.45
2022-11-14T18:36:24.616Z,10.43
2022-11-14T18:38:51.849Z,10.07
2022-11-14T18:41:21.187Z,10.23
2022-11-14T18:43:49.437Z,10.18
2022-11-14T18:46:25.040Z,9.82
2022-11-14T18:48:57.241Z,10.13
2022-11-14T18:51:29.746Z,11.25
2022-11-14T18:53:59.300Z,10.70
2022-11-14T18:56:27.149Z,11.02
2022-11-14T18:58:56.258Z,10.38
2022-11-14T19:01:26.406Z,11.75
2022-11-14T19:03:57.577Z,12.82
2022-11-14T19:06:25.367Z,12.95
2022-11-14T19:08:57.784Z,13.07
2022-11-14T19:11:43.811Z,13.13
2022-11-14T19:14:11.121Z,14.13
2022-11-14T19:16:38.887Z,14.93
2022-11-14T19:19:07.189Z,14.43
2022-11-14T19:21:35.074Z,14.60
2022-11-14T19:24:02.361Z,14.90
2022-11-14T19:26:30.374Z,15.02
2022-11-14T19:29:02.277Z,15.38
2022-11-14T19:31:29.852Z,16.10
2022-11-14T19:33:57.111Z,16.25
